createdAt,value
2018-08-03T00:01:28.714Z,71.88
2018-08-03T00:06:25.132Z,71.40
2018-08-03T00:11:22.610Z,71.66
2018-08-03T00:16:18.320Z,72.04
2018-08-03T00:21:14.022Z,72.14
2018-08-03T00:26:10.371Z,72.62
2018-08-03T00:31:06.397Z,72.33
2018-08-03T00:36:03.190Z,72.68
2018-08-03T00:40:58.877Z,72.88
2018-08-03T00:45:55.773Z,72.42
2018-08-03T00:50:52.566Z,73.26
2018-08-03T00:55:48.256Z,73.16
2018-08-03T01:00:44.540Z,74.13
2018-08-03T01:05:40.441Z,74.13
2018-08-03T01:10:36.378Z,75.26
2018-08-03T01:15:33.061Z,75.26
2018-08-03T01:20:28.621Z,75.89
2018-08-03T01:25:24.314Z,75.51
2018-08-03T01:30:20.182Z,75.70
2018-08-03T01:35:17.163Z,76.18
2018-08-03T01:40:12.788Z,75.99
2018-08-03T01:45:08.564Z,76.86
2018-08-03T01:50:05.430Z,77.25
2018-08-03T01:55:01.120Z,77.15
2018-08-03T01:59:57.151Z,77.05
2018-08-03T02:04:52.962Z,77.44
2018-08-03T02:09:48.867Z,77.73
2018-08-03T02:14:44.737Z,78.66
2018-08-03T02:19:40.554Z,78.56
2018-08-03T02:24:37.235Z,78.46
2018-08-03T02:29:34.059Z,79.58
2018-08-03T02:34:29.622Z,79.10
2018-08-03T02:39:25.635Z,79.49
2018-08-03T02:44:21.636Z,78.66
2018-08-03T02:49:17.430Z,79.39
2018-08-03T02:54:13.186Z,79.62
2018-08-03T02:59:08.848Z,79.62
2018-08-03T03:04:05.754Z,81.22
2018-08-03T03:09:02.370Z,81.02
2018-08-03T03:13:57.916Z,81.51
2018-08-03T03:18:53.468Z,81.70
2018-08-03T03:23:49.872Z,82.28
2018-08-03T03:28:45.879Z,81.51
2018-08-03T03:33:42.094Z,83.11
2018-08-03T03:38:37.895Z,83.50
2018-08-03T03:43:33.706Z,83.01
2018-08-03T03:48:31.323Z,83.11
2018-08-03T03:53:26.936Z,83.59
2018-08-03T03:58:22.950Z,84.55
2018-08-03T04:03:19.144Z,84.84
2018-08-03T04:08:16.007Z,84.07
2018-08-03T04:13:11.763Z,84.46
2018-08-03T04:18:07.720Z,84.70
2018-08-03T04:23:04.535Z,84.46
2018-08-03T04:28:01.165Z,83.88
2018-08-03T04:32:57.820Z,83.98
2018-08-03T04:37:53.556Z,84.17
2018-08-03T04:42:50.513Z,83.34
2018-08-03T04:47:47.402Z,80.53
2018-08-03T04:52:43.537Z,78.06
2018-08-03T04:57:40.445Z,77.76
2018-08-03T05:02:36.129Z,77.96
2018-08-03T05:07:32.399Z,77.96
2018-08-03T05:12:28.124Z,80.20
2018-08-03T05:17:23.964Z,81.16
2018-08-03T05:22:20.308Z,80.14
2018-08-03T05:27:17.345Z,79.27
2018-08-03T05:32:13.343Z,78.64
2018-08-03T05:37:09.718Z,78.44
2018-08-03T05:42:06.629Z,78.54
2018-08-03T05:47:03.159Z,78.92
2018-08-03T05:51:59.793Z,78.58
2018-08-03T05:56:55.645Z,77.32
2018-08-03T06:01:51.728Z,77.07
2018-08-03T06:06:47.795Z,77.84
2018-08-03T06:11:43.717Z,77.84
2018-08-03T06:16:39.689Z,78.58
2018-08-03T06:21:35.724Z,78.42
2018-08-03T06:26:31.799Z,78.03
2018-08-03T06:31:28.980Z,77.50
2018-08-03T06:36:24.887Z,80.36
2018-08-03T06:41:20.627Z,79.87
2018-08-03T06:46:17.694Z,80.55
2018-08-03T06:51:13.437Z,80.59
2018-08-03T06:56:10.365Z,80.01
2018-08-03T07:01:06.678Z,80.82
2018-08-03T07:06:02.554Z,79.66
2018-08-03T07:10:59.840Z,79.60
2018-08-03T07:15:56.622Z,80.57
2018-08-03T07:20:53.691Z,80.71
2018-08-03T07:25:50.940Z,79.93
2018-08-03T07:30:46.839Z,80.71
2018-08-03T07:35:43.923Z,80.65
2018-08-03T07:40:39.805Z,78.85
2018-08-03T07:45:35.786Z,78.85
2018-08-03T07:50:32.812Z,79.18
2018-08-03T07:55:28.990Z,78.99
2018-08-03T08:00:26.702Z,76.05
2018-08-03T08:05:25.289Z,71.33
2018-08-03T08:10:23.546Z,67.83
2018-08-03T08:15:23.265Z,63.02
2018-08-03T08:20:20.716Z,60.73
2018-08-03T08:25:18.998Z,57.76
2018-08-03T08:30:15.563Z,58.97
2018-08-03T08:35:11.950Z,59.53
2018-08-03T08:40:08.287Z,58.41
2018-08-03T08:45:04.996Z,58.31
2018-08-03T08:50:01.971Z,59.56
2018-08-03T08:54:58.320Z,61.48
2018-08-03T08:59:51.694Z,62.66
2018-08-03T09:04:47.999Z,62.23
2018-08-03T09:09:42.929Z,60.31
2018-08-03T09:14:38.305Z,60.31
2018-08-03T09:19:34.228Z,59.27
2018-08-03T09:24:31.811Z,58.28
2018-08-03T09:29:29.829Z,55.87
2018-08-03T09:34:26.849Z,56.75
2018-08-03T09:39:23.655Z,55.90
2018-08-03T09:44:21.257Z,53.11
2018-08-03T09:49:18.048Z,50.51
2018-08-03T09:54:14.696Z,49.75
2018-08-03T09:59:12.293Z,51.17
2018-08-03T10:04:07.923Z,52.00
2018-08-03T10:09:04.006Z,51.17
2018-08-03T10:14:00.763Z,50.09
2018-08-03T10:18:57.213Z,50.09
2018-08-03T10:23:53.733Z,48.77
2018-08-03T10:28:50.466Z,48.57
2018-08-03T10:33:46.714Z,48.45
2018-08-03T10:38:43.142Z,45.75
2018-08-03T10:43:40.061Z,43.06
2018-08-03T10:48:36.983Z,42.41
2018-08-03T10:53:34.737Z,41.59
2018-08-03T10:58:30.764Z,40.41
2018-08-03T11:03:27.979Z,40.51
2018-08-03T11:08:25.224Z,41.41
2018-08-03T11:13:21.479Z,40.33
2018-08-03T11:18:17.914Z,40.90
2018-08-03T11:23:15.434Z,41.41
2018-08-03T11:28:11.869Z,40.13
2018-08-03T11:33:08.006Z,40.88
2018-08-03T11:38:03.910Z,41.55
2018-08-03T11:43:00.671Z,41.49
2018-08-03T11:47:57.724Z,39.84
2018-08-03T11:52:54.569Z,40.72
2018-08-03T11:57:50.419Z,41.90
2018-08-03T12:02:46.672Z,41.35
2018-08-03T12:07:44.391Z,40.43
2018-08-03T12:12:41.044Z,39.44
2018-08-03T12:17:38.454Z,38.85
2018-08-03T12:22:35.859Z,38.97
2018-08-03T12:27:33.015Z,38.51
2018-08-03T12:32:29.783Z,37.53
2018-08-03T12:37:26.919Z,39.05
2018-08-03T12:42:21.743Z,39.82
2018-08-03T12:47:16.869Z,41.06
2018-08-03T12:52:11.231Z,41.03
2018-08-03T12:57:05.164Z,40.43
2018-08-03T13:02:00.534Z,41.61
2018-08-03T13:06:58.008Z,40.08
2018-08-03T13:11:54.726Z,38.85
2018-08-03T13:16:51.232Z,37.71
2018-08-03T13:21:47.434Z,37.61
2018-08-03T13:26:43.725Z,36.43
2018-08-03T13:31:40.667Z,37.87
2018-08-03T13:36:36.173Z,37.10
2018-08-03T13:41:31.516Z,38.76
2018-08-03T13:46:27.354Z,40.27
2018-08-03T13:51:23.021Z,40.08
2018-08-03T13:56:18.475Z,40.23
2018-08-03T14:01:15.167Z,41.31
2018-08-03T14:06:10.487Z,41.61
2018-08-03T14:11:06.741Z,42.15
2018-08-03T14:16:02.641Z,41.27
2018-08-03T14:20:58.395Z,41.98
2018-08-03T14:25:55.231Z,40.63
2018-08-03T14:30:51.917Z,41.71
2018-08-03T14:35:47.884Z,41.61
2018-08-03T14:40:44.649Z,41.96
2018-08-03T14:45:40.293Z,41.66
2018-08-03T14:50:36.084Z,42.13
2018-08-03T14:55:32.042Z,43.41
2018-08-03T15:00:27.961Z,42.62
2018-08-03T15:05:23.971Z,41.94
2018-08-03T15:10:20.097Z,42.03
2018-08-03T15:15:16.181Z,41.47
2018-08-03T15:20:12.218Z,41.96
2018-08-03T15:25:08.255Z,41.15
2018-08-03T15:30:04.312Z,41.94
2018-08-03T15:35:00.359Z,41.94
2018-08-03T15:39:56.430Z,42.03
2018-08-03T15:44:53.479Z,40.58
2018-08-03T15:49:50.193Z,40.58
2018-08-03T15:54:46.880Z,40.00
2018-08-03T15:59:42.410Z,40.48
2018-08-03T16:04:38.290Z,40.66
2018-08-03T16:09:34.317Z,40.76
2018-08-03T16:14:30.336Z,41.94
2018-08-03T16:19:26.767Z,42.11
2018-08-03T16:24:22.527Z,42.02
2018-08-03T16:29:18.326Z,42.70
2018-08-03T16:34:15.413Z,42.80
2018-08-03T16:39:11.204Z,42.80
2018-08-03T16:44:08.283Z,43.29
2018-08-03T16:49:04.089Z,43.07
2018-08-03T16:54:00.286Z,42.80
2018-08-03T16:58:56.672Z,43.48
2018-08-03T17:03:52.736Z,44.66
2018-08-03T17:08:48.872Z,44.17
2018-08-03T17:13:44.968Z,44.19
2018-08-03T17:18:41.044Z,43.98
2018-08-03T17:23:37.183Z,44.56
2018-08-03T17:28:34.110Z,44.17
2018-08-03T17:33:30.634Z,44.83
2018-08-03T17:38:27.557Z,44.54
2018-08-03T17:43:23.408Z,45.03
2018-08-03T17:48:19.467Z,45.62
2018-08-03T17:53:15.509Z,45.59
2018-08-03T17:58:11.594Z,45.79
2018-08-03T18:03:08.669Z,46.18
2018-08-03T18:08:04.415Z,46.57
2018-08-03T18:13:00.225Z,46.55
2018-08-03T18:17:56.337Z,47.53
2018-08-03T18:22:53.234Z,47.50
2018-08-03T18:27:48.826Z,48.68
2018-08-03T18:32:44.790Z,48.87
2018-08-03T18:37:40.850Z,49.33
2018-08-03T18:42:36.714Z,49.82
2018-08-03T18:47:32.671Z,49.90
2018-08-03T18:52:29.530Z,50.78
2018-08-03T18:57:25.186Z,50.59
2018-08-03T19:02:21.325Z,51.04
2018-08-03T19:07:18.341Z,52.31
2018-08-03T19:12:14.113Z,52.58
2018-08-03T19:17:11.223Z,55.71
2018-08-03T19:22:06.866Z,56.95
2018-08-03T19:27:02.990Z,58.31
2018-08-03T19:31:58.963Z,58.67
2018-08-03T19:36:54.935Z,59.35
2018-08-03T19:41:50.978Z,59.52
2018-08-03T19:46:47.186Z,60.30
2018-08-03T19:51:43.074Z,60.78
2018-08-03T19:56:39.434Z,61.93
2018-08-03T20:01:35.635Z,61.73
2018-08-03T20:06:31.665Z,62.70
2018-08-03T20:11:27.665Z,62.67
2018-08-03T20:16:23.617Z,63.16
2018-08-03T20:21:19.446Z,63.71
2018-08-03T20:26:15.422Z,64.10
2018-08-03T20:31:11.381Z,64.29
2018-08-03T20:36:08.230Z,65.43
2018-08-03T20:41:03.823Z,65.43
2018-08-03T20:45:59.707Z,65.33
2018-08-03T20:50:57.196Z,65.69
2018-08-03T20:55:52.965Z,64.81
2018-08-03T21:00:49.028Z,65.17
2018-08-03T21:05:45.032Z,65.56
2018-08-03T21:10:40.917Z,65.08
2018-08-03T21:15:36.748Z,66.24
2018-08-03T21:20:32.898Z,66.30
2018-08-03T21:25:28.891Z,66.50
2018-08-03T21:30:25.758Z,67.08
2018-08-03T21:35:22.437Z,67.47
2018-08-03T21:40:19.196Z,67.44
2018-08-03T21:45:14.804Z,66.76
2018-08-03T21:50:10.788Z,66.66
2018-08-03T21:55:06.923Z,65.40
2018-08-03T22:00:02.853Z,65.01
2018-08-03T22:04:58.763Z,64.88
2018-08-03T22:09:54.645Z,64.30
2018-08-03T22:14:51.530Z,64.11
2018-08-03T22:19:47.154Z,64.11
2018-08-03T22:24:42.915Z,64.17
2018-08-03T22:29:38.844Z,64.17
2018-08-03T22:34:34.568Z,65.24
2018-08-03T22:39:30.523Z,65.01
2018-08-03T22:44:26.329Z,65.79
2018-08-03T22:49:22.314Z,65.89
2018-08-03T22:54:18.545Z,65.98
2018-08-03T22:59:14.406Z,65.59
2018-08-03T23:04:10.296Z,65.79
2018-08-03T23:09:07.173Z,66.24
2018-08-03T23:14:03.368Z,66.14
2018-08-03T23:18:59.161Z,65.85
2018-08-03T23:23:56.002Z,66.24
2018-08-03T23:28:52.104Z,65.95
2018-08-03T23:33:48.634Z,65.75
2018-08-03T23:38:45.393Z,66.43
2018-08-03T23:43:41.000Z,66.82
2018-08-03T23:48:36.824Z,66.50
2018-08-03T23:53:33.852Z,66.20
2018-08-03T23:58:29.724Z,65.43
